sensor_id;sensor_type;location;lat;lon;timestamp;pressure;altitude;pressure_sealevel;temperature;humidity
78892;BME280;68280;51.728;5.248;2023-02-28T00:01:11;103114.45;;;18.25;36.55
78892;BME280;68280;51.728;5.248;2023-02-28T00:03:39;103113.39;;;18.25;36.56
78892;BME280;68280;51.728;5.248;2023-02-28T00:06:08;103118.23;;;18.25;36.46
78892;BME280;68280;51.728;5.248;2023-02-28T00:08:37;103120.77;;;18.24;36.40
78892;BME280;68280;51.728;5.248;2023-02-28T00:11:07;103120.05;;;18.25;36.39
78892;BME280;68280;51.728;5.248;2023-02-28T00:13:37;103122.21;;;18.24;36.39
78892;BME280;68280;51.728;5.248;2023-02-28T00:16:09;103119.69;;;18.25;36.44
78892;BME280;68280;51.728;5.248;2023-02-28T00:18:38;103122.39;;;18.25;36.45
78892;BME280;68280;51.728;5.248;2023-02-28T00:21:07;103118.61;;;18.24;36.40
78892;BME280;68280;51.728;5.248;2023-02-28T00:23:36;103117.01;;;18.24;36.37
78892;BME280;68280;51.728;5.248;2023-02-28T00:26:05;103119.52;;;18.23;36.49
78892;BME280;68280;51.728;5.248;2023-02-28T00:28:33;103115.91;;;18.23;36.45
78892;BME280;68280;51.728;5.248;2023-02-28T00:31:02;103116.64;;;18.22;36.42
78892;BME280;68280;51.728;5.248;2023-02-28T00:33:31;103119.34;;;18.22;36.42
78892;BME280;68280;51.728;5.248;2023-02-28T00:36:07;103122.59;;;18.21;36.48
78892;BME280;68280;51.728;5.248;2023-02-28T00:38:36;103121.67;;;18.21;36.41
78892;BME280;68280;51.728;5.248;2023-02-28T00:41:05;103124.02;;;18.20;36.31
78892;BME280;68280;51.728;5.248;2023-02-28T00:43:35;103117.20;;;18.19;36.45
78892;BME280;68280;51.728;5.248;2023-02-28T00:46:04;103115.40;;;18.19;36.48
78892;BME280;68280;51.728;5.248;2023-02-28T00:48:33;103116.30;;;18.19;36.41
78892;BME280;68280;51.728;5.248;2023-02-28T00:51:02;103111.44;;;18.20;36.34
78892;BME280;68280;51.728;5.248;2023-02-28T00:53:30;103107.13;;;18.20;36.40
78892;BME280;68280;51.728;5.248;2023-02-28T00:55:59;103102.63;;;18.20;36.33
78892;BME280;68280;51.728;5.248;2023-02-28T00:58:27;103111.44;;;18.21;36.28
78892;BME280;68280;51.728;5.248;2023-02-28T01:00:56;103115.21;;;18.21;36.29
78892;BME280;68280;51.728;5.248;2023-02-28T01:03:24;103113.42;;;18.21;36.28
78892;BME280;68280;51.728;5.248;2023-02-28T01:05:53;103111.44;;;18.21;36.41
78892;BME280;68280;51.728;5.248;2023-02-28T01:08:21;103110.91;;;18.21;36.34
78892;BME280;68280;51.728;5.248;2023-02-28T01:10:50;103111.25;;;18.22;36.34
78892;BME280;68280;51.728;5.248;2023-02-28T01:13:18;103117.55;;;18.21;36.14
78892;BME280;68280;51.728;5.248;2023-02-28T01:15:48;103117.91;;;18.22;36.20
78892;BME280;68280;51.728;5.248;2023-02-28T01:18:17;103118.45;;;18.21;36.28
78892;BME280;68280;51.728;5.248;2023-02-28T01:20:45;103117.54;;;18.21;36.36
78892;BME280;68280;51.728;5.248;2023-02-28T01:23:14;103113.41;;;18.20;36.27
78892;BME280;68280;51.728;5.248;2023-02-28T01:25:42;103109.30;;;18.20;36.34
78892;BME280;68280;51.728;5.248;2023-02-28T01:28:10;103109.10;;;18.20;36.19
78892;BME280;68280;51.728;5.248;2023-02-28T01:30:39;103112.88;;;18.20;36.32
78892;BME280;68280;51.728;5.248;2023-02-28T01:33:07;103115.20;;;18.20;36.24
78892;BME280;68280;51.728;5.248;2023-02-28T01:35:36;103119.88;;;18.20;36.12
78892;BME280;68280;51.728;5.248;2023-02-28T01:38:04;103123.30;;;18.21;36.25
78892;BME280;68280;51.728;5.248;2023-02-28T01:40:32;103124.56;;;18.22;36.19
78892;BME280;68280;51.728;5.248;2023-02-28T01:43:01;103124.38;;;18.21;36.20
78892;BME280;68280;51.728;5.248;2023-02-28T01:45:30;103121.86;;;18.21;36.07
78892;BME280;68280;51.728;5.248;2023-02-28T01:48:02;103124.38;;;18.21;36.16
78892;BME280;68280;51.728;5.248;2023-02-28T01:50:36;103120.43;;;18.21;36.27
78892;BME280;68280;51.728;5.248;2023-02-28T01:53:10;103116.30;;;18.21;36.17
78892;BME280;68280;51.728;5.248;2023-02-28T01:55:41;103114.67;;;18.20;36.23
78892;BME280;68280;51.728;5.248;2023-02-28T01:58:11;103112.51;;;18.21;36.25
78892;BME280;68280;51.728;5.248;2023-02-28T02:00:40;103110.89;;;18.20;36.19
78892;BME280;68280;51.728;5.248;2023-02-28T02:03:11;103111.80;;;18.20;36.01
78892;BME280;68280;51.728;5.248;2023-02-28T02:05:41;103112.69;;;18.20;36.12
78892;BME280;68280;51.728;5.248;2023-02-28T02:08:12;103110.89;;;18.21;36.19
78892;BME280;68280;51.728;5.248;2023-02-28T02:10:44;103110.55;;;18.21;36.13
78892;BME280;68280;51.728;5.248;2023-02-28T02:13:29;103107.13;;;18.21;36.10
78892;BME280;68280;51.728;5.248;2023-02-28T02:16:07;103104.60;;;18.22;36.29
78892;BME280;68280;51.728;5.248;2023-02-28T02:18:46;103108.02;;;18.23;36.26
78892;BME280;68280;51.728;5.248;2023-02-28T02:21:40;103105.49;;;18.22;36.09
78892;BME280;68280;51.728;5.248;2023-02-28T02:24:40;103101.00;;;18.22;36.07
78892;BME280;68280;51.728;5.248;2023-02-28T02:27:26;103097.23;;;18.22;36.12
78892;BME280;68280;51.728;5.248;2023-02-28T02:30:23;103101.72;;;18.22;36.09
78892;BME280;68280;51.728;5.248;2023-02-28T02:33:10;103101.73;;;18.22;36.22
78892;BME280;68280;51.728;5.248;2023-02-28T02:35:49;103103.54;;;18.21;36.05
78892;BME280;68280;51.728;5.248;2023-02-28T02:38:27;103098.67;;;18.21;36.13
78892;BME280;68280;51.728;5.248;2023-02-28T02:41:03;103098.66;;;18.21;36.04
78892;BME280;68280;51.728;5.248;2023-02-28T02:43:35;103095.08;;;18.21;36.02
78892;BME280;68280;51.728;5.248;2023-02-28T02:46:12;103092.76;;;18.21;36.14
78892;BME280;68280;51.728;5.248;2023-02-28T02:48:43;103100.64;;;18.22;36.02
78892;BME280;68280;51.728;5.248;2023-02-28T02:51:15;103092.91;;;18.23;36.05
78892;BME280;68280;51.728;5.248;2023-02-28T02:53:48;103096.69;;;18.23;36.07
78892;BME280;68280;51.728;5.248;2023-02-28T02:56:19;103092.55;;;18.23;36.10
78892;BME280;68280;51.728;5.248;2023-02-28T02:58:51;103096.13;;;18.23;36.06
78892;BME280;68280;51.728;5.248;2023-02-28T03:01:23;103100.09;;;18.23;36.04
78892;BME280;68280;51.728;5.248;2023-02-28T03:03:55;103098.66;;;18.22;36.08
78892;BME280;68280;51.728;5.248;2023-02-28T03:06:24;103105.30;;;18.23;36.00
78892;BME280;68280;51.728;5.248;2023-02-28T03:08:53;103105.14;;;18.23;36.12
78892;BME280;68280;51.728;5.248;2023-02-28T03:17:02;103101.90;;;18.23;36.13
78892;BME280;68280;51.728;5.248;2023-02-28T03:19:56;103094.70;;;18.23;36.10
78892;BME280;68280;51.728;5.248;2023-02-28T03:22:41;103091.48;;;18.24;35.93
78892;BME280;68280;51.728;5.248;2023-02-28T03:25:19;103093.63;;;18.24;36.11
78892;BME280;68280;51.728;5.248;2023-02-28T03:27:55;103092.90;;;18.24;35.99
78892;BME280;68280;51.728;5.248;2023-02-28T03:30:32;103088.79;;;18.24;35.87
78892;BME280;68280;51.728;5.248;2023-02-28T03:33:06;103092.91;;;18.24;35.95
78892;BME280;68280;51.728;5.248;2023-02-28T03:35:39;103094.52;;;18.24;35.93
78892;BME280;68280;51.728;5.248;2023-02-28T03:38:12;103088.40;;;18.23;35.96
78892;BME280;68280;51.728;5.248;2023-02-28T03:40:45;103093.63;;;18.23;35.98
78892;BME280;68280;51.728;5.248;2023-02-28T03:43:19;103097.77;;;18.24;35.93
78892;BME280;68280;51.728;5.248;2023-02-28T03:45:51;103101.71;;;18.23;35.97
78892;BME280;68280;51.728;5.248;2023-02-28T03:48:23;103105.48;;;18.23;35.93
78892;BME280;68280;51.728;5.248;2023-02-28T03:50:56;103106.02;;;18.23;35.98
78892;BME280;68280;51.728;5.248;2023-02-28T03:53:27;103102.61;;;18.24;35.92
78892;BME280;68280;51.728;5.248;2023-02-28T03:55:59;103101.89;;;18.25;35.98
78892;BME280;68280;51.728;5.248;2023-02-28T03:58:31;103107.10;;;18.25;35.97
78892;BME280;68280;51.728;5.248;2023-02-28T04:01:09;103103.52;;;18.24;36.04
78892;BME280;68280;51.728;5.248;2023-02-28T04:03:40;103103.14;;;18.25;35.92
78892;BME280;68280;51.728;5.248;2023-02-28T04:06:15;103098.28;;;18.25;35.84
78892;BME280;68280;51.728;5.248;2023-02-28T04:08:45;103100.27;;;18.25;35.95
78892;BME280;68280;51.728;5.248;2023-02-28T04:11:20;103102.25;;;18.25;35.90
78892;BME280;68280;51.728;5.248;2023-02-28T04:13:49;103097.58;;;18.25;35.90
78892;BME280;68280;51.728;5.248;2023-02-28T04:16:17;103096.87;;;18.24;35.94
78892;BME280;68280;51.728;5.248;2023-02-28T04:18:46;103100.64;;;18.24;35.93
78892;BME280;68280;51.728;5.248;2023-02-28T04:21:14;103100.45;;;18.24;35.91
78892;BME280;68280;51.728;5.248;2023-02-28T04:23:42;103100.81;;;18.25;35.94
78892;BME280;68280;51.728;5.248;2023-02-28T04:26:11;103101.54;;;18.25;35.84
78892;BME280;68280;51.728;5.248;2023-02-28T04:28:39;103100.09;;;18.25;35.90
78892;BME280;68280;51.728;5.248;2023-02-28T04:31:08;103108.17;;;18.26;35.98
78892;BME280;68280;51.728;5.248;2023-02-28T04:33:36;103107.27;;;18.26;35.85
78892;BME280;68280;51.728;5.248;2023-02-28T04:36:08;103106.73;;;18.26;35.77
78892;BME280;68280;51.728;5.248;2023-02-28T04:38:37;103109.79;;;18.27;35.86
78892;BME280;68280;51.728;5.248;2023-02-28T04:41:06;103110.86;;;18.27;35.68
78892;BME280;68280;51.728;5.248;2023-02-28T04:43:35;103108.71;;;18.27;35.84
78892;BME280;68280;51.728;5.248;2023-02-28T04:46:04;103114.29;;;18.27;35.75
78892;BME280;68280;51.728;5.248;2023-02-28T04:48:35;103106.73;;;18.26;35.76
78892;BME280;68280;51.728;5.248;2023-02-28T04:51:05;103106.91;;;18.27;35.84
78892;BME280;68280;51.728;5.248;2023-02-28T04:53:34;103112.66;;;18.28;35.69
78892;BME280;68280;51.728;5.248;2023-02-28T04:56:02;103115.36;;;18.27;35.77
78892;BME280;68280;51.728;5.248;2023-02-28T04:58:31;103121.29;;;18.28;35.83
78892;BME280;68280;51.728;5.248;2023-02-28T05:01:07;103120.55;;;18.29;35.85
78892;BME280;68280;51.728;5.248;2023-02-28T05:03:44;103114.09;;;18.29;35.80
78892;BME280;68280;51.728;5.248;2023-02-28T05:06:13;103120.19;;;18.29;35.66
78892;BME280;68280;51.728;5.248;2023-02-28T05:08:41;103131.71;;;18.30;35.71
78892;BME280;68280;51.728;5.248;2023-02-28T05:11:19;103131.87;;;18.30;35.76
78892;BME280;68280;51.728;5.248;2023-02-28T05:13:49;103129.19;;;18.30;35.73
78892;BME280;68280;51.728;5.248;2023-02-28T05:16:18;103131.34;;;18.31;35.68
78892;BME280;68280;51.728;5.248;2023-02-28T05:18:47;103137.08;;;18.32;35.65
78892;BME280;68280;51.728;5.248;2023-02-28T05:21:25;103127.91;;;18.33;35.61
78892;BME280;68280;51.728;5.248;2023-02-28T05:23:54;103131.86;;;18.34;35.58
78892;BME280;68280;51.728;5.248;2023-02-28T05:26:23;103132.58;;;18.34;35.52
78892;BME280;68280;51.728;5.248;2023-02-28T05:28:52;103132.39;;;18.35;35.58
78892;BME280;68280;51.728;5.248;2023-02-28T05:31:20;103132.04;;;18.36;35.67
78892;BME280;68280;51.728;5.248;2023-02-28T05:33:48;103132.21;;;18.37;35.50
78892;BME280;68280;51.728;5.248;2023-02-28T05:36:17;103137.41;;;18.37;35.50
78892;BME280;68280;51.728;5.248;2023-02-28T05:38:47;103132.55;;;18.38;35.63
78892;BME280;68280;51.728;5.248;2023-02-28T05:41:16;103122.30;;;18.38;35.52
78892;BME280;68280;51.728;5.248;2023-02-28T05:43:44;103128.06;;;18.39;35.48
78892;BME280;68280;51.728;5.248;2023-02-28T05:46:13;103124.09;;;18.40;35.46
78892;BME280;68280;51.728;5.248;2023-02-28T05:48:42;103119.77;;;18.41;35.56
78892;BME280;68280;51.728;5.248;2023-02-28T05:51:11;103129.30;;;18.42;35.37
78892;BME280;68280;51.728;5.248;2023-02-28T05:53:39;103130.91;;;18.42;35.42
78892;BME280;68280;51.728;5.248;2023-02-28T05:56:08;103128.05;;;18.42;35.42
78892;BME280;68280;51.728;5.248;2023-02-28T05:58:36;103124.63;;;18.42;35.40
78892;BME280;68280;51.728;5.248;2023-02-28T06:01:22;103127.67;;;18.43;35.36
78892;BME280;68280;51.728;5.248;2023-02-28T06:03:50;103135.94;;;18.44;35.50
78892;BME280;68280;51.728;5.248;2023-02-28T06:06:19;103133.40;;;18.45;35.47
78892;BME280;68280;51.728;5.248;2023-02-28T06:08:47;103110.38;;;18.46;35.35
78892;BME280;68280;51.728;5.248;2023-02-28T06:11:15;103109.48;;;18.46;35.27
78892;BME280;68280;51.728;5.248;2023-02-28T06:13:44;103121.17;;;18.47;35.23
78892;BME280;68280;51.728;5.248;2023-02-28T06:16:12;103129.98;;;18.48;35.41
78892;BME280;68280;51.728;5.248;2023-02-28T06:18:40;103131.95;;;18.49;35.24
78892;BME280;68280;51.728;5.248;2023-02-28T06:21:09;103127.26;;;18.49;35.28
78892;BME280;68280;51.728;5.248;2023-02-28T06:23:37;103124.20;;;18.50;35.23
78892;BME280;68280;51.728;5.248;2023-02-28T06:26:07;103134.63;;;18.51;35.13
78892;BME280;68280;51.728;5.248;2023-02-28T06:28:35;103129.22;;;18.52;35.26
78892;BME280;68280;51.728;5.248;2023-02-28T06:31:09;103129.95;;;18.53;35.11
78892;BME280;68280;51.728;5.248;2023-02-28T06:33:37;103128.85;;;18.54;35.24
78892;BME280;68280;51.728;5.248;2023-02-28T06:36:07;103123.81;;;18.54;35.13
78892;BME280;68280;51.728;5.248;2023-02-28T06:38:36;103117.35;;;18.54;35.28
78892;BME280;68280;51.728;5.248;2023-02-28T06:41:05;103121.48;;;18.54;35.11
78892;BME280;68280;51.728;5.248;2023-02-28T06:43:35;103132.08;;;18.55;35.17
78892;BME280;68280;51.728;5.248;2023-02-28T06:46:07;103140.17;;;18.56;35.13
78892;BME280;68280;51.728;5.248;2023-02-28T06:48:35;103123.27;;;18.57;35.22
78892;BME280;68280;51.728;5.248;2023-02-28T06:51:06;103125.24;;;18.57;35.18
78892;BME280;68280;51.728;5.248;2023-02-28T06:53:35;103127.39;;;18.57;35.13
78892;BME280;68280;51.728;5.248;2023-02-28T06:56:07;103137.09;;;18.58;35.15
78892;BME280;68280;51.728;5.248;2023-02-28T06:58:36;103141.41;;;18.59;35.17
78892;BME280;68280;51.728;5.248;2023-02-28T07:01:05;103136.20;;;18.59;35.14
78892;BME280;68280;51.728;5.248;2023-02-28T07:03:35;103148.98;;;18.59;35.20
78892;BME280;68280;51.728;5.248;2023-02-28T07:06:05;103154.00;;;18.59;35.13
78892;BME280;68280;51.728;5.248;2023-02-28T07:08:34;103153.48;;;18.59;35.06
78892;BME280;68280;51.728;5.248;2023-02-28T07:11:04;103158.15;;;18.60;35.21
78892;BME280;68280;51.728;5.248;2023-02-28T07:13:32;103157.79;;;18.60;35.14
78892;BME280;68280;51.728;5.248;2023-02-28T07:16:03;103164.61;;;18.60;35.20
78892;BME280;68280;51.728;5.248;2023-02-28T07:18:31;103160.48;;;18.60;35.25
78892;BME280;68280;51.728;5.248;2023-02-28T07:21:01;103158.13;;;18.61;35.19
78892;BME280;68280;51.728;5.248;2023-02-28T07:23:29;103164.60;;;18.61;35.21
78892;BME280;68280;51.728;5.248;2023-02-28T07:25:57;103162.27;;;18.61;35.13
78892;BME280;68280;51.728;5.248;2023-02-28T07:28:25;103162.63;;;18.61;35.13
78892;BME280;68280;51.728;5.248;2023-02-28T07:30:54;103168.39;;;18.61;35.16
78892;BME280;68280;51.728;5.248;2023-02-28T07:33:22;103166.06;;;18.59;35.26
78892;BME280;68280;51.728;5.248;2023-02-28T07:35:50;103170.20;;;18.58;35.17
78892;BME280;68280;51.728;5.248;2023-02-28T07:38:18;103170.73;;;18.59;35.20
78892;BME280;68280;51.728;5.248;2023-02-28T07:40:47;103169.48;;;18.59;35.16
78892;BME280;68280;51.728;5.248;2023-02-28T07:43:15;103169.84;;;18.59;35.19
78892;BME280;68280;51.728;5.248;2023-02-28T07:45:43;103167.69;;;18.59;35.00
78892;BME280;68280;51.728;5.248;2023-02-28T07:48:12;103172.16;;;18.61;35.35
78892;BME280;68280;51.728;5.248;2023-02-28T07:50:40;103175.58;;;18.61;35.25
78892;BME280;68280;51.728;5.248;2023-02-28T07:53:08;103181.35;;;18.62;35.30
78892;BME280;68280;51.728;5.248;2023-02-28T07:55:36;103182.42;;;18.62;35.17
78892;BME280;68280;51.728;5.248;2023-02-28T07:58:05;103178.27;;;18.61;35.30
78892;BME280;68280;51.728;5.248;2023-02-28T08:00:33;103179.89;;;18.61;35.25
78892;BME280;68280;51.728;5.248;2023-02-28T08:03:01;103184.40;;;18.60;35.32
78892;BME280;68280;51.728;5.248;2023-02-28T08:05:29;103182.42;;;18.60;35.17
78892;BME280;68280;51.728;5.248;2023-02-28T08:07:58;103179.36;;;18.59;35.33
78892;BME280;68280;51.728;5.248;2023-02-28T08:10:26;103179.19;;;18.58;35.14
78892;BME280;68280;51.728;5.248;2023-02-28T08:12:54;103184.06;;;18.58;35.20
78892;BME280;68280;51.728;5.248;2023-02-28T08:15:23;103187.66;;;18.57;35.08
78892;BME280;68280;51.728;5.248;2023-02-28T08:17:52;103185.69;;;18.56;35.30
78892;BME280;68280;51.728;5.248;2023-02-28T08:20:21;103178.31;;;18.55;35.29
78892;BME280;68280;51.728;5.248;2023-02-28T08:22:49;103182.09;;;18.55;35.21
78892;BME280;68280;51.728;5.248;2023-02-28T08:25:18;103183.91;;;18.53;35.23
78892;BME280;68280;51.728;5.248;2023-02-28T08:27:46;103186.25;;;18.53;35.16
78892;BME280;68280;51.728;5.248;2023-02-28T08:30:16;103186.06;;;18.52;35.15
78892;BME280;68280;51.728;5.248;2023-02-28T08:32:44;103184.63;;;18.52;35.29
78892;BME280;68280;51.728;5.248;2023-02-28T08:35:12;103183.73;;;18.52;35.23
78892;BME280;68280;51.728;5.248;2023-02-28T08:37:41;103178.33;;;18.51;35.21
78892;BME280;68280;51.728;5.248;2023-02-28T08:40:11;103182.66;;;18.51;35.22
78892;BME280;68280;51.728;5.248;2023-02-28T08:42:39;103178.89;;;18.51;35.15
78892;BME280;68280;51.728;5.248;2023-02-28T08:45:09;103179.61;;;18.50;35.09
78892;BME280;68280;51.728;5.248;2023-02-28T08:47:38;103170.96;;;18.49;35.21
78892;BME280;68280;51.728;5.248;2023-02-28T08:50:09;103168.27;;;18.49;35.20
78892;BME280;68280;51.728;5.248;2023-02-28T08:52:37;103169.35;;;18.49;35.10
78892;BME280;68280;51.728;5.248;2023-02-28T08:55:07;103173.14;;;18.49;35.08
78892;BME280;68280;51.728;5.248;2023-02-28T08:57:35;103174.23;;;18.48;35.07
78892;BME280;68280;51.728;5.248;2023-02-28T09:00:05;103175.48;;;18.46;35.05
78892;BME280;68280;51.728;5.248;2023-02-28T09:02:33;103185.02;;;18.47;35.08
78892;BME280;68280;51.728;5.248;2023-02-28T09:05:02;103182.68;;;18.46;35.28
78892;BME280;68280;51.728;5.248;2023-02-28T09:07:30;103177.84;;;18.44;35.07
78892;BME280;68280;51.728;5.248;2023-02-28T09:09:58;103171.56;;;18.44;35.14
78892;BME280;68280;51.728;5.248;2023-02-28T09:12:27;103169.39;;;18.42;35.16
78892;BME280;68280;51.728;5.248;2023-02-28T09:19:51;103176.08;;;18.40;35.09
78892;BME280;68280;51.728;5.248;2023-02-28T09:22:19;103173.91;;;18.39;35.18
78892;BME280;68280;51.728;5.248;2023-02-28T09:24:47;103174.63;;;18.39;35.19
78892;BME280;68280;51.728;5.248;2023-02-28T09:27:15;103175.70;;;18.38;35.15
78892;BME280;68280;51.728;5.248;2023-02-28T09:29:44;103172.84;;;18.37;35.12
78892;BME280;68280;51.728;5.248;2023-02-28T09:32:12;103177.88;;;18.37;35.18
78892;BME280;68280;51.728;5.248;2023-02-28T09:34:40;103177.89;;;18.37;35.13
78892;BME280;68280;51.728;5.248;2023-02-28T09:37:09;103183.10;;;18.37;35.16
78892;BME280;68280;51.728;5.248;2023-02-28T09:39:37;103178.43;;;18.36;35.22
78892;BME280;68280;51.728;5.248;2023-02-28T09:42:06;103186.88;;;18.35;35.20
78892;BME280;68280;51.728;5.248;2023-02-28T09:44:42;103186.34;;;18.35;35.12
78892;BME280;68280;51.728;5.248;2023-02-28T09:47:17;103183.27;;;18.35;35.04
78892;BME280;68280;51.728;5.248;2023-02-28T09:49:47;103184.36;;;18.34;35.20
78892;BME280;68280;51.728;5.248;2023-02-28T09:52:18;103188.31;;;18.34;35.18
78892;BME280;68280;51.728;5.248;2023-02-28T09:54:47;103186.70;;;18.34;35.13
78892;BME280;68280;51.728;5.248;2023-02-28T09:57:21;103185.63;;;18.33;35.12
78892;BME280;68280;51.728;5.248;2023-02-28T10:00:05;103177.55;;;18.32;35.18
78892;BME280;68280;51.728;5.248;2023-02-28T10:02:53;103175.77;;;18.32;35.01
78892;BME280;68280;51.728;5.248;2023-02-28T10:05:28;103170.53;;;18.31;34.93
78892;BME280;68280;51.728;5.248;2023-02-28T10:08:03;103173.23;;;18.30;35.13
78892;BME280;68280;51.728;5.248;2023-02-28T10:10:38;103173.77;;;18.31;34.94
78892;BME280;68280;51.728;5.248;2023-02-28T10:13:15;103173.95;;;18.30;35.02
78892;BME280;68280;51.728;5.248;2023-02-28T10:15:50;103168.56;;;18.30;35.06
78892;BME280;68280;51.728;5.248;2023-02-28T10:18:23;103168.40;;;18.30;35.05
78892;BME280;68280;51.728;5.248;2023-02-28T10:20:54;103170.90;;;18.30;34.93
78892;BME280;68280;51.728;5.248;2023-02-28T10:23:28;103171.08;;;18.29;35.08
78892;BME280;68280;51.728;5.248;2023-02-28T10:25:59;103170.89;;;18.29;35.02
78892;BME280;68280;51.728;5.248;2023-02-28T10:28:29;103164.61;;;18.29;35.12
78892;BME280;68280;51.728;5.248;2023-02-28T10:30:58;103160.66;;;18.28;35.01
78892;BME280;68280;51.728;5.248;2023-02-28T10:33:30;103156.71;;;18.27;34.96
78892;BME280;68280;51.728;5.248;2023-02-28T10:35:59;103158.33;;;18.28;35.05
78892;BME280;68280;51.728;5.248;2023-02-28T10:38:31;103158.15;;;18.27;34.94
78892;BME280;68280;51.728;5.248;2023-02-28T10:41:07;103157.96;;;18.28;34.96
78892;BME280;68280;51.728;5.248;2023-02-28T10:43:37;103159.23;;;18.27;34.97
78892;BME280;68280;51.728;5.248;2023-02-28T10:46:13;103154.56;;;18.27;34.91
78892;BME280;68280;51.728;5.248;2023-02-28T10:48:43;103157.62;;;18.27;34.90
78892;BME280;68280;51.728;5.248;2023-02-28T10:51:13;103159.59;;;18.27;34.87
78892;BME280;68280;51.728;5.248;2023-02-28T10:53:49;103156.36;;;18.27;35.02
78892;BME280;68280;51.728;5.248;2023-02-28T10:56:19;103153.83;;;18.27;34.93
78892;BME280;68280;51.728;5.248;2023-02-28T10:58:52;103149.35;;;18.27;35.05
78892;BME280;68280;51.728;5.248;2023-02-28T11:01:24;103148.08;;;18.26;35.00
78892;BME280;68280;51.728;5.248;2023-02-28T11:03:53;103144.49;;;18.26;34.97
78892;BME280;68280;51.728;5.248;2023-02-28T11:06:23;103138.02;;;18.26;34.95
78892;BME280;68280;51.728;5.248;2023-02-28T11:08:54;103134.78;;;18.26;34.98
78892;BME280;68280;51.728;5.248;2023-02-28T11:11:26;103133.16;;;18.26;35.02
78892;BME280;68280;51.728;5.248;2023-02-28T11:13:57;103127.78;;;18.25;34.81
78892;BME280;68280;51.728;5.248;2023-02-28T11:16:36;103123.98;;;18.25;34.96
78892;BME280;68280;51.728;5.248;2023-02-28T11:19:15;103125.08;;;18.25;35.01
78892;BME280;68280;51.728;5.248;2023-02-28T11:21:51;103130.48;;;18.24;34.88
78892;BME280;68280;51.728;5.248;2023-02-28T11:24:24;103129.58;;;18.25;34.92
78892;BME280;68280;51.728;5.248;2023-02-28T11:26:54;103126.36;;;18.24;34.95
78892;BME280;68280;51.728;5.248;2023-02-28T11:29:26;103128.88;;;18.24;34.93
78892;BME280;68280;51.728;5.248;2023-02-28T11:32:15;103127.97;;;18.24;34.90
78892;BME280;68280;51.728;5.248;2023-02-28T11:34:45;103126.71;;;18.24;34.85
78892;BME280;68280;51.728;5.248;2023-02-28T11:37:16;103123.29;;;18.24;34.85
78892;BME280;68280;51.728;5.248;2023-02-28T11:39:46;103121.85;;;18.23;34.84
78892;BME280;68280;51.728;5.248;2023-02-28T11:42:27;103122.92;;;18.23;34.88
78892;BME280;68280;51.728;5.248;2023-02-28T11:45:11;103119.88;;;18.23;34.90
78892;BME280;68280;51.728;5.248;2023-02-28T11:47:47;103115.02;;;18.23;34.87
78892;BME280;68280;51.728;5.248;2023-02-28T11:50:25;103113.75;;;18.23;34.84
78892;BME280;68280;51.728;5.248;2023-02-28T11:52:56;103111.77;;;18.23;34.78
78892;BME280;68280;51.728;5.248;2023-02-28T11:55:34;103105.67;;;18.23;34.96
78892;BME280;68280;51.728;5.248;2023-02-28T11:58:21;103111.77;;;18.23;34.82
78892;BME280;68280;51.728;5.248;2023-02-28T12:01:07;103115.02;;;18.23;34.82
78892;BME280;68280;51.728;5.248;2023-02-28T12:03:48;103111.40;;;18.23;34.86
78892;BME280;68280;51.728;5.248;2023-02-28T12:06:27;103109.63;;;18.23;34.88
78892;BME280;68280;51.728;5.248;2023-02-28T12:09:08;103102.63;;;18.24;34.82
78892;BME280;68280;51.728;5.248;2023-02-28T12:11:50;103102.25;;;18.23;34.89
78892;BME280;68280;51.728;5.248;2023-02-28T12:14:30;103096.33;;;18.23;34.87
78892;BME280;68280;51.728;5.248;2023-02-28T12:17:18;103100.83;;;18.23;34.83
78892;BME280;68280;51.728;5.248;2023-02-28T12:19:54;103096.86;;;18.22;34.83
78892;BME280;68280;51.728;5.248;2023-02-28T12:22:29;103091.48;;;18.22;34.79
78892;BME280;68280;51.728;5.248;2023-02-28T12:25:36;103092.20;;;18.22;34.76
78892;BME280;68280;51.728;5.248;2023-02-28T12:28:09;103090.04;;;18.22;34.70
78892;BME280;68280;51.728;5.248;2023-02-28T12:30:43;103079.06;;;18.22;34.82
78892;BME280;68280;51.728;5.248;2023-02-28T12:33:18;103077.98;;;18.22;34.74
78892;BME280;68280;51.728;5.248;2023-02-28T12:35:51;103078.89;;;18.22;34.77
78892;BME280;68280;51.728;5.248;2023-02-28T12:38:22;103076.02;;;18.22;34.70
78892;BME280;68280;51.728;5.248;2023-02-28T12:40:56;103078.17;;;18.22;34.70
78892;BME280;68280;51.728;5.248;2023-02-28T12:43:30;103076.92;;;18.22;34.78
78892;BME280;68280;51.728;5.248;2023-02-28T12:46:05;103074.59;;;18.21;34.67
78892;BME280;68280;51.728;5.248;2023-02-28T12:48:42;103078.00;;;18.22;34.69
78892;BME280;68280;51.728;5.248;2023-02-28T12:51:11;103080.70;;;18.21;34.71
78892;BME280;68280;51.728;5.248;2023-02-28T12:53:52;103075.12;;;18.22;34.84
78892;BME280;68280;51.728;5.248;2023-02-28T12:56:30;103071.70;;;18.22;34.72
78892;BME280;68280;51.728;5.248;2023-02-28T12:59:08;103065.77;;;18.22;34.69
78892;BME280;68280;51.728;5.248;2023-02-28T13:02:00;103064.88;;;18.22;34.66
78892;BME280;68280;51.728;5.248;2023-02-28T13:04:43;103057.32;;;18.21;34.75
78892;BME280;68280;51.728;5.248;2023-02-28T13:07:38;103051.74;;;18.22;34.72
78892;BME280;68280;51.728;5.248;2023-02-28T13:10:11;103051.56;;;18.22;34.46
78892;BME280;68280;51.728;5.248;2023-02-28T13:12:49;103045.98;;;18.22;34.66
78892;BME280;68280;51.728;5.248;2023-02-28T13:15:21;103039.88;;;18.22;34.61
78892;BME280;68280;51.728;5.248;2023-02-28T13:17:52;103040.41;;;18.22;34.61
78892;BME280;68280;51.728;5.248;2023-02-28T13:20:23;103038.98;;;18.24;34.57
78892;BME280;68280;51.728;5.248;2023-02-28T13:22:54;103036.09;;;18.24;34.54
78892;BME280;68280;51.728;5.248;2023-02-28T13:25:52;103038.23;;;18.25;34.47